Terminal Aerodrome Forecast
Issued by NWS

Home | Current Version | Previous Version | Graphics & Text | Print | Product List | Glossary On
Versions: 1 2 3 4 5 6 7 8 9 10 11 12 13 14 15 16 17 18 19 20 21 22 23 24 25 26 27 28 29 30
000
FTUS43 KGRB 231120
TAFATW
TAF
KATW 231120Z 2312/2412 16006KT P6SM OVC070
      TEMPO 2312/2314 5SM -SHSN
     FM231400 16011G19KT P6SM OVC090
     FM232200 16010G17KT P6SM OVC050 WS020/22040KT
     FM240000 16008KT P6SM -RA OVC040 WS020/22045KT
     FM240500 19005KT 6SM -RA OVC028 WS020/24060KT=

USA.gov is the U.S. government's official web portal to all federal, state and local government web resources and services.